createdAt,value
2023-01-29T00:01:13.948Z,55.43
2023-01-29T00:06:16.088Z,55.40
2023-01-29T00:11:18.334Z,55.24
2023-01-29T00:16:21.098Z,55.16
2023-01-29T00:21:23.597Z,55.03
2023-01-29T00:26:26.069Z,55.06
2023-01-29T00:31:28.086Z,54.81
2023-01-29T00:36:29.981Z,55.22
2023-01-29T00:41:51.511Z,54.96
2023-01-29T00:46:53.476Z,54.95
2023-01-29T00:52:13.899Z,55.13
2023-01-29T00:57:15.769Z,54.97
2023-01-29T01:02:36.666Z,55.41
2023-01-29T01:07:39.052Z,55.00
2023-01-29T01:12:40.879Z,54.79
2023-01-29T01:17:42.780Z,54.80
2023-01-29T01:22:44.644Z,54.71
2023-01-29T01:27:46.982Z,54.80
2023-01-29T01:32:49.332Z,54.91
2023-01-29T01:37:51.288Z,54.81
2023-01-29T01:43:00.071Z,54.65
2023-01-29T01:48:07.977Z,54.75
2023-01-29T01:53:12.907Z,54.74
2023-01-29T01:58:41.014Z,54.90
2023-01-29T02:04:16.295Z,54.81
2023-01-29T02:09:52.160Z,54.53
2023-01-29T02:14:54.304Z,54.55
2023-01-29T02:20:11.643Z,54.63
2023-01-29T02:25:39.465Z,54.75
2023-01-29T02:31:15.071Z,54.94
2023-01-29T02:36:35.451Z,55.10
2023-01-29T02:41:41.428Z,55.13
2023-01-29T02:46:51.347Z,54.76
2023-01-29T02:52:09.832Z,55.13
2023-01-29T02:57:17.847Z,55.01
2023-01-29T03:02:29.275Z,54.87
2023-01-29T03:07:44.935Z,55.07
2023-01-29T03:13:10.785Z,54.98
2023-01-29T03:18:26.140Z,55.46
2023-01-29T03:23:52.904Z,55.32
2023-01-29T03:29:13.433Z,55.24
2023-01-29T03:34:24.792Z,54.75
2023-01-29T03:39:29.656Z,54.85
2023-01-29T03:45:11.455Z,54.53
2023-01-29T03:50:48.084Z,54.88
2023-01-29T03:56:34.462Z,54.67
2023-01-29T04:01:45.271Z,54.79
2023-01-29T04:06:50.969Z,54.62
2023-01-29T04:12:05.685Z,55.35
2023-01-29T04:17:21.632Z,54.82
2023-01-29T04:22:48.780Z,54.69
2023-01-29T04:27:57.522Z,54.78
2023-01-29T04:33:27.099Z,54.70
2023-01-29T04:38:43.113Z,54.66
2023-01-29T04:44:13.015Z,54.73
2023-01-29T04:49:34.514Z,54.57
2023-01-29T04:55:15.430Z,55.07
2023-01-29T05:00:40.770Z,54.53
2023-01-29T05:05:47.323Z,54.75
2023-01-29T05:10:52.128Z,55.05
2023-01-29T05:15:53.920Z,54.63
2023-01-29T05:20:57.508Z,55.17
2023-01-29T05:25:59.596Z,54.95
2023-01-29T05:31:01.513Z,54.81
2023-01-29T05:36:04.105Z,54.75
2023-01-29T05:41:05.999Z,54.69
2023-01-29T05:46:07.832Z,55.02
2023-01-29T05:51:09.718Z,54.79
2023-01-29T05:56:11.526Z,55.14
2023-01-29T06:01:19.120Z,55.16
2023-01-29T06:06:21.074Z,55.20
2023-01-29T06:11:23.281Z,54.91
2023-01-29T06:16:25.211Z,55.20
2023-01-29T06:21:27.189Z,55.22
2023-01-29T06:26:29.018Z,55.00
2023-01-29T06:31:39.721Z,55.16
2023-01-29T06:36:42.110Z,55.02
2023-01-29T06:41:45.479Z,55.40
2023-01-29T06:46:47.319Z,55.25
2023-01-29T06:51:49.140Z,55.11
2023-01-29T06:56:51.927Z,55.48
2023-01-29T07:01:53.802Z,54.93
2023-01-29T07:06:55.667Z,55.09
2023-01-29T07:11:57.543Z,55.11
2023-01-29T07:16:59.496Z,55.03
2023-01-29T07:22:04.191Z,55.28
2023-01-29T07:27:06.042Z,55.29
2023-01-29T07:32:08.079Z,55.10
2023-01-29T07:37:10.143Z,55.35
2023-01-29T07:42:12.043Z,55.25
2023-01-29T07:47:15.212Z,55.19
2023-01-29T07:52:20.804Z,54.61
2023-01-29T07:57:24.093Z,55.40
2023-01-29T08:02:25.949Z,55.17
2023-01-29T08:07:27.803Z,54.92
2023-01-29T08:12:29.658Z,55.41
2023-01-29T08:17:31.476Z,55.00
2023-01-29T08:22:33.321Z,55.11
2023-01-29T08:27:35.780Z,55.08
2023-01-29T08:32:37.601Z,55.18
2023-01-29T08:37:39.447Z,54.99
2023-01-29T08:42:41.654Z,54.87
2023-01-29T08:47:48.342Z,54.78
2023-01-29T08:52:50.274Z,55.13
2023-01-29T08:57:52.239Z,55.00
2023-01-29T09:02:54.101Z,55.23
2023-01-29T09:07:59.224Z,55.17
2023-01-29T09:13:02.475Z,55.17
2023-01-29T09:18:06.342Z,55.17
2023-01-29T09:23:10.540Z,55.08
2023-01-29T09:28:13.200Z,54.78
2023-01-29T09:33:15.760Z,54.96
2023-01-29T09:38:17.743Z,55.03
2023-01-29T09:43:26.281Z,55.08
2023-01-29T09:48:32.061Z,54.88
2023-01-29T09:53:43.505Z,54.99
2023-01-29T09:58:45.459Z,54.83
2023-01-29T10:03:56.319Z,55.10
2023-01-29T10:09:16.896Z,54.97
2023-01-29T10:14:43.623Z,54.57
2023-01-29T10:20:03.892Z,54.78
2023-01-29T10:25:13.278Z,54.72
2023-01-29T10:30:22.318Z,54.78
2023-01-29T10:35:31.694Z,54.61
2023-01-29T10:40:43.580Z,54.54
2023-01-29T10:46:20.048Z,54.82
2023-01-29T10:51:52.283Z,54.61
2023-01-29T10:57:10.294Z,54.99
2023-01-29T11:02:16.886Z,54.87
2023-01-29T11:07:21.284Z,54.85
2023-01-29T11:12:30.604Z,55.04
2023-01-29T11:17:32.525Z,54.66
2023-01-29T11:22:34.407Z,54.83
2023-01-29T11:27:44.377Z,54.79
2023-01-29T11:32:52.547Z,54.89
2023-01-29T11:38:26.586Z,54.88
2023-01-29T11:43:31.151Z,54.47
2023-01-29T11:48:59.082Z,54.61
2023-01-29T11:54:18.212Z,54.47
2023-01-29T11:59:40.718Z,54.19
2023-01-29T12:04:42.563Z,54.58
2023-01-29T12:09:59.738Z,54.16
2023-01-29T12:15:25.173Z,54.29
2023-01-29T12:20:45.885Z,54.14
2023-01-29T12:26:02.953Z,54.17
2023-01-29T12:31:29.283Z,54.14
2023-01-29T12:36:44.270Z,53.72
2023-01-29T12:41:56.047Z,54.14
2023-01-29T12:47:01.265Z,54.07
2023-01-29T12:52:17.679Z,54.10
2023-01-29T12:57:45.440Z,54.20
2023-01-29T13:02:59.406Z,54.16
2023-01-29T13:08:10.091Z,54.33
2023-01-29T13:13:33.500Z,54.21
2023-01-29T13:18:53.383Z,53.87
2023-01-29T13:24:00.207Z,54.31
2023-01-29T13:29:03.099Z,54.29
2023-01-29T13:34:26.239Z,54.00
2023-01-29T13:39:44.348Z,54.31
2023-01-29T13:44:51.746Z,54.28
2023-01-29T13:49:56.647Z,54.15
2023-01-29T13:55:01.944Z,54.28
2023-01-29T14:00:05.224Z,54.40
2023-01-29T14:05:31.850Z,54.42
2023-01-29T14:10:35.360Z,54.54
2023-01-29T14:15:39.736Z,54.11
2023-01-29T14:20:54.542Z,54.39
2023-01-29T14:25:59.743Z,53.49
2023-01-29T14:31:03.045Z,54.21
2023-01-29T14:36:09.459Z,54.11
2023-01-29T14:41:35.779Z,54.04
2023-01-29T14:46:37.545Z,54.66
2023-01-29T14:51:44.163Z,54.18
2023-01-29T14:56:53.788Z,54.05
2023-01-29T15:01:56.585Z,54.24
2023-01-29T15:07:11.439Z,54.18
2023-01-29T15:12:47.270Z,54.86
2023-01-29T15:18:31.528Z,54.92
2023-01-29T15:23:34.712Z,54.68
2023-01-29T15:28:37.676Z,54.54
2023-01-29T15:33:42.973Z,54.58
2023-01-29T15:38:44.857Z,54.64
2023-01-29T15:43:49.859Z,54.76
2023-01-29T15:48:53.604Z,54.38
2023-01-29T15:53:58.355Z,54.70
2023-01-29T15:59:07.265Z,54.83
2023-01-29T16:04:17.983Z,54.72
2023-01-29T16:09:26.321Z,54.90
2023-01-29T16:14:30.116Z,55.01
2023-01-29T16:19:32.213Z,54.83
2023-01-29T16:24:37.172Z,54.94
2023-01-29T16:29:39.441Z,55.29
2023-01-29T16:34:44.794Z,55.46
2023-01-29T16:39:49.686Z,54.96
2023-01-29T16:45:28.212Z,55.34
2023-01-29T16:50:46.253Z,55.42
2023-01-29T16:56:05.173Z,54.93
2023-01-29T17:01:11.629Z,55.02
2023-01-29T17:06:21.112Z,55.24
2023-01-29T17:11:38.646Z,55.17
2023-01-29T17:16:51.413Z,54.67
2023-01-29T17:21:53.649Z,55.07
2023-01-29T17:26:55.474Z,54.86
2023-01-29T17:32:00.361Z,54.73
2023-01-29T17:37:02.499Z,54.79
2023-01-29T17:42:04.586Z,54.84
2023-01-29T17:47:08.078Z,54.39
2023-01-29T17:52:10.724Z,53.90
2023-01-29T17:57:15.071Z,54.06
2023-01-29T18:02:29.099Z,53.77
2023-01-29T18:07:31.799Z,53.69
2023-01-29T18:12:34.106Z,53.25
2023-01-29T18:17:36.034Z,53.08
2023-01-29T18:22:37.919Z,53.12
2023-01-29T18:27:39.919Z,53.26
2023-01-29T18:32:41.820Z,53.17
2023-01-29T18:37:44.093Z,52.75
2023-01-29T18:42:47.155Z,52.77
2023-01-29T18:47:49.435Z,52.81
2023-01-29T18:52:51.436Z,52.42
2023-01-29T18:58:26.870Z,52.77
2023-01-29T19:03:16.361Z,52.36
2023-01-29T19:08:18.633Z,52.62
2023-01-29T19:13:20.477Z,52.96
2023-01-29T19:18:22.393Z,52.86
2023-01-29T19:23:24.283Z,53.15
2023-01-29T19:28:26.146Z,53.05
2023-01-29T19:33:28.605Z,53.09
2023-01-29T19:38:33.525Z,53.12
2023-01-29T19:43:35.577Z,53.25
2023-01-29T19:48:37.402Z,52.97
2023-01-29T19:53:43.831Z,53.01
2023-01-29T19:58:46.021Z,53.15
2023-01-29T20:03:49.389Z,52.90
2023-01-29T20:08:51.960Z,52.57
2023-01-29T20:13:54.555Z,53.04
2023-01-29T20:19:13.679Z,52.70
2023-01-29T20:24:16.825Z,52.75
2023-01-29T20:29:18.837Z,52.74
2023-01-29T20:34:20.692Z,52.67
2023-01-29T20:39:22.654Z,52.65
2023-01-29T20:44:25.207Z,52.89
2023-01-29T20:49:28.432Z,52.79
2023-01-29T20:54:33.218Z,52.74
2023-01-29T20:59:35.338Z,52.69
2023-01-29T21:04:37.149Z,52.66
2023-01-29T21:09:38.977Z,52.74
2023-01-29T21:14:40.787Z,52.41
2023-01-29T21:19:44.097Z,52.65
2023-01-29T21:24:45.974Z,52.29
2023-01-29T21:29:48.618Z,52.62
2023-01-29T21:34:52.652Z,52.00
2023-01-29T21:39:54.649Z,51.92
2023-01-29T21:44:56.703Z,51.86
2023-01-29T21:49:58.511Z,51.78
2023-01-29T21:55:00.341Z,51.76
2023-01-29T22:00:03.230Z,51.58
2023-01-29T22:05:18.242Z,51.42
2023-01-29T22:10:21.689Z,51.50
2023-01-29T22:15:24.206Z,51.56
2023-01-29T22:20:30.262Z,51.80
2023-01-29T22:25:33.551Z,51.71
2023-01-29T22:30:35.589Z,51.84
2023-01-29T22:35:38.228Z,51.49
2023-01-29T22:40:40.307Z,51.55
2023-01-29T22:45:42.122Z,51.57
2023-01-29T22:50:53.234Z,51.63
2023-01-29T22:55:55.867Z,51.76
2023-01-29T23:00:57.786Z,51.67
2023-01-29T23:05:59.707Z,51.34
2023-01-29T23:11:15.559Z,51.14
2023-01-29T23:16:18.977Z,50.92
2023-01-29T23:21:22.801Z,50.76
2023-01-29T23:26:43.892Z,50.93
2023-01-29T23:31:45.865Z,51.00
2023-01-29T23:36:47.724Z,50.96
2023-01-29T23:41:49.601Z,50.91
2023-01-29T23:46:51.447Z,51.14
2023-01-29T23:51:53.620Z,50.82
2023-01-29T23:56:55.833Z,50.79
